createdAt,value
2023-05-10T00:01:23.472Z,12.10
2023-05-10T00:03:50.943Z,12.00
2023-05-10T00:06:19.638Z,12.20
2023-05-10T00:09:07.622Z,12.20
2023-05-10T00:11:38.271Z,12.00
2023-05-10T00:14:06.047Z,12.00
2023-05-10T00:16:33.458Z,12.10
2023-05-10T00:19:21.676Z,12.00
2023-05-10T00:21:50.541Z,12.30
2023-05-10T00:24:24.378Z,12.50
2023-05-10T00:26:52.174Z,11.90
2023-05-10T00:29:20.830Z,12.00
2023-05-10T00:31:50.017Z,12.40
2023-05-10T00:34:17.579Z,11.90
2023-05-10T00:36:48.691Z,12.10
2023-05-10T00:39:16.147Z,12.20
2023-05-10T00:41:44.462Z,12.40
2023-05-10T00:44:12.243Z,12.10
2023-05-10T00:51:38.468Z,12.20
2023-05-10T00:54:06.757Z,12.10
2023-05-10T00:56:34.762Z,12.30
2023-05-10T00:59:03.048Z,12.20
2023-05-10T01:01:42.843Z,12.40
2023-05-10T01:04:13.408Z,12.40
2023-05-10T01:06:47.035Z,12.20
2023-05-10T01:09:14.573Z,12.20
2023-05-10T01:11:57.033Z,12.70
2023-05-10T01:14:25.903Z,12.30
2023-05-10T01:16:57.538Z,12.30
2023-05-10T01:19:49.940Z,12.20
2023-05-10T01:22:51.532Z,12.30
2023-05-10T01:25:42.023Z,12.30
2023-05-10T01:28:24.543Z,13.30
2023-05-10T01:30:55.027Z,12.30
2023-05-10T01:34:04.854Z,12.60
2023-05-10T01:37:05.927Z,12.40
2023-05-10T01:43:24.546Z,12.40
2023-05-10T01:49:37.334Z,12.40
2023-05-10T01:52:10.628Z,12.40
2023-05-10T01:54:42.909Z,12.40
2023-05-10T01:57:13.273Z,12.50
2023-05-10T01:59:43.931Z,13.20
2023-05-10T02:02:14.376Z,12.60
2023-05-10T02:04:43.140Z,12.30
2023-05-10T02:07:13.246Z,12.90
2023-05-10T02:09:42.307Z,12.10
2023-05-10T02:12:11.880Z,13.30
2023-05-10T02:14:42.457Z,12.30
2023-05-10T02:17:10.610Z,12.50
2023-05-10T02:19:41.966Z,13.60
2023-05-10T02:22:10.697Z,13.40
2023-05-10T02:24:39.420Z,11.60
2023-05-10T02:27:07.910Z,12.10
2023-05-10T02:29:38.054Z,12.60
2023-05-10T02:32:06.366Z,12.30
2023-05-10T02:34:34.320Z,12.60
2023-05-10T02:37:03.771Z,11.90
2023-05-10T02:39:33.170Z,13.00
2023-05-10T02:42:03.323Z,12.10
2023-05-10T02:44:32.170Z,13.60
2023-05-10T02:47:00.872Z,13.20
2023-05-10T02:49:29.270Z,12.00
2023-05-10T02:52:00.873Z,12.10
2023-05-10T02:54:35.400Z,12.40
2023-05-10T02:57:06.147Z,12.80
2023-05-10T02:59:33.766Z,12.10
2023-05-10T03:02:01.702Z,12.40
2023-05-10T03:04:29.328Z,12.10
2023-05-10T03:06:58.440Z,12.00
2023-05-10T03:09:26.125Z,12.00
2023-05-10T03:12:11.146Z,11.80
2023-05-10T03:14:49.728Z,11.30
2023-05-10T03:17:38.409Z,12.00
2023-05-10T03:20:11.494Z,11.90
2023-05-10T03:22:44.294Z,12.00
2023-05-10T03:25:14.231Z,13.40
2023-05-10T03:27:44.327Z,12.00
2023-05-10T03:30:13.653Z,12.00
2023-05-10T03:32:41.512Z,11.90
2023-05-10T03:35:14.239Z,12.10
2023-05-10T03:37:42.825Z,11.90
2023-05-10T03:40:11.624Z,11.90
2023-05-10T03:42:41.669Z,11.90
2023-05-10T03:45:09.903Z,11.90
2023-05-10T03:47:37.492Z,9.90
2023-05-10T03:50:06.602Z,12.00
2023-05-10T03:52:34.148Z,11.80
2023-05-10T03:55:03.952Z,12.40
2023-05-10T03:57:31.474Z,11.80
2023-05-10T03:59:58.923Z,13.30
2023-05-10T04:02:26.945Z,12.10
2023-05-10T04:04:54.794Z,11.70
2023-05-10T04:07:22.346Z,11.80
2023-05-10T04:09:49.851Z,13.00
2023-05-10T04:12:17.365Z,11.70
2023-05-10T04:14:44.721Z,11.60
2023-05-10T04:17:12.117Z,11.50
2023-05-10T04:19:39.568Z,11.60
2023-05-10T04:22:07.420Z,11.90
2023-05-10T04:24:34.779Z,11.50
2023-05-10T04:27:02.173Z,11.50
2023-05-10T04:29:29.616Z,11.70
2023-05-10T04:31:57.596Z,11.10
2023-05-10T04:34:25.010Z,11.30
2023-05-10T04:36:52.327Z,11.30
2023-05-10T04:39:20.033Z,11.50
2023-05-10T04:41:48.236Z,11.50
2023-05-10T04:44:16.199Z,11.30
2023-05-10T04:46:44.298Z,11.30
2023-05-10T04:49:12.077Z,11.30
2023-05-10T04:51:40.594Z,13.40
2023-05-10T04:56:36.431Z,11.20
2023-05-10T04:59:04.008Z,11.50
2023-05-10T05:01:31.436Z,11.20
2023-05-10T05:03:59.483Z,10.90
2023-05-10T05:06:28.278Z,11.30
2023-05-10T05:08:55.878Z,12.30
2023-05-10T05:11:23.413Z,11.10
2023-05-10T05:13:50.771Z,11.30
2023-05-10T05:16:18.276Z,11.10
2023-05-10T05:18:46.235Z,11.50
2023-05-10T05:21:21.061Z,11.40
2023-05-10T05:26:17.022Z,11.10
2023-05-10T05:28:45.376Z,11.10
2023-05-10T05:31:13.167Z,11.00
2023-05-10T05:33:41.277Z,11.20
2023-05-10T05:36:09.449Z,12.20
2023-05-10T05:38:37.487Z,11.10
2023-05-10T05:41:08.570Z,11.60
2023-05-10T05:43:38.174Z,11.50
2023-05-10T05:46:06.429Z,11.60
2023-05-10T05:48:34.322Z,11.40
2023-05-10T05:51:01.809Z,12.50
2023-05-10T05:53:29.145Z,12.00
2023-05-10T05:55:59.498Z,12.80
2023-05-10T05:58:27.286Z,11.60
2023-05-10T06:00:55.021Z,11.60
2023-05-10T06:03:22.592Z,12.70
2023-05-10T06:05:50.234Z,11.80
2023-05-10T06:08:17.893Z,12.80
2023-05-10T06:10:46.327Z,11.80
2023-05-10T06:13:13.773Z,12.30
2023-05-10T06:15:41.179Z,12.00
2023-05-10T06:18:08.667Z,11.90
2023-05-10T06:20:36.124Z,11.70
2023-05-10T06:23:03.587Z,11.70
2023-05-10T06:25:31.971Z,11.80
2023-05-10T06:27:59.409Z,12.90
2023-05-10T06:30:29.490Z,12.00
2023-05-10T06:32:59.502Z,12.30
2023-05-10T06:35:27.105Z,12.00
2023-05-10T06:37:55.061Z,11.90
2023-05-10T06:40:22.554Z,11.90
2023-05-10T06:42:50.669Z,12.00
2023-05-10T06:45:19.029Z,11.80
2023-05-10T06:47:46.876Z,11.70
2023-05-10T06:50:14.829Z,11.90
2023-05-10T06:52:44.080Z,12.40
2023-05-10T06:55:12.780Z,12.10
2023-05-10T06:57:41.344Z,12.60
2023-05-10T07:00:10.733Z,12.20
2023-05-10T07:02:38.240Z,12.30
2023-05-10T07:05:06.210Z,14.20
2023-05-10T07:07:33.618Z,12.40
2023-05-10T07:10:01.452Z,12.50
2023-05-10T07:12:28.920Z,12.80
2023-05-10T07:14:56.372Z,12.80
2023-05-10T07:17:25.828Z,13.10
2023-05-10T07:19:53.444Z,13.10
2023-05-10T07:22:21.884Z,13.00
2023-05-10T07:24:50.157Z,12.90
2023-05-10T07:27:17.694Z,13.10
2023-05-10T07:29:45.045Z,12.90
2023-05-10T07:32:12.411Z,12.90
2023-05-10T07:34:40.197Z,14.70
2023-05-10T07:37:10.431Z,12.90
2023-05-10T07:39:38.575Z,12.90
2023-05-10T07:42:06.869Z,12.90
2023-05-10T07:44:36.942Z,13.00
2023-05-10T07:47:04.677Z,14.10
2023-05-10T07:49:31.986Z,13.10
2023-05-10T07:51:59.554Z,13.10
2023-05-10T07:54:27.034Z,13.30
2023-05-10T07:56:54.394Z,13.20
2023-05-10T07:59:22.059Z,13.30
2023-05-10T08:01:49.782Z,13.40
2023-05-10T08:04:18.166Z,13.90
2023-05-10T08:06:45.767Z,13.40
2023-05-10T08:09:14.560Z,13.50
2023-05-10T08:11:42.072Z,13.70
2023-05-10T08:14:09.642Z,13.90
2023-05-10T08:16:36.988Z,13.60
2023-05-10T08:19:05.547Z,13.60
2023-05-10T08:21:33.066Z,13.70
2023-05-10T08:24:00.414Z,14.50
2023-05-10T08:26:27.906Z,13.90
2023-05-10T08:28:56.859Z,15.20
2023-05-10T08:31:24.174Z,15.10
2023-05-10T08:33:53.526Z,14.10
2023-05-10T08:36:22.823Z,14.10
2023-05-10T08:38:55.342Z,14.10
2023-05-10T08:41:27.297Z,14.10
2023-05-10T08:43:55.448Z,14.20
2023-05-10T08:46:24.471Z,14.20
2023-05-10T08:48:53.152Z,14.30
2023-05-10T08:51:26.503Z,14.50
2023-05-10T08:53:54.544Z,14.60
2023-05-10T08:56:22.311Z,14.60
2023-05-10T08:58:50.682Z,14.80
2023-05-10T09:01:20.383Z,15.00
2023-05-10T09:03:49.202Z,14.70
2023-05-10T09:06:16.827Z,14.70
2023-05-10T09:08:46.516Z,14.80
2023-05-10T09:11:14.330Z,14.90
2023-05-10T09:13:42.921Z,15.00
2023-05-10T09:16:21.343Z,14.90
2023-05-10T09:18:50.617Z,15.10
2023-05-10T09:21:18.303Z,15.10
2023-05-10T09:23:51.026Z,15.20
2023-05-10T09:26:23.067Z,15.50
2023-05-10T09:28:58.770Z,15.40
2023-05-10T09:31:49.119Z,15.30
2023-05-10T09:34:21.912Z,14.20
2023-05-10T09:36:57.584Z,15.40
2023-05-10T09:39:34.110Z,15.50
2023-05-10T09:42:07.384Z,15.50
2023-05-10T09:44:35.863Z,15.50
2023-05-10T09:47:03.974Z,15.80
2023-05-10T09:49:34.104Z,15.60
2023-05-10T09:52:02.345Z,15.80
2023-05-10T09:54:30.352Z,16.10
2023-05-10T09:56:58.114Z,15.70
2023-05-10T09:59:29.297Z,16.10
2023-05-10T10:01:59.169Z,16.00
2023-05-10T10:04:29.023Z,16.00
2023-05-10T10:07:04.600Z,16.20
2023-05-10T10:09:32.764Z,17.30
2023-05-10T10:12:04.719Z,16.40
2023-05-10T10:14:32.614Z,16.40
2023-05-10T10:19:34.544Z,16.50
2023-05-10T10:22:01.880Z,16.80
2023-05-10T10:24:29.511Z,16.80
2023-05-10T10:27:05.310Z,16.70
2023-05-10T10:29:42.940Z,16.80
2023-05-10T10:32:49.131Z,16.70
2023-05-10T10:35:17.187Z,16.80
2023-05-10T10:37:49.107Z,16.90
2023-05-10T10:40:34.463Z,16.90
2023-05-10T10:43:28.033Z,16.90
2023-05-10T10:46:15.170Z,17.10
2023-05-10T10:48:52.343Z,17.30
2023-05-10T10:51:19.744Z,17.60
2023-05-10T10:53:49.312Z,17.50
2023-05-10T10:56:19.420Z,17.50
2023-05-10T10:58:54.747Z,17.40
2023-05-10T11:04:19.710Z,17.10
2023-05-10T11:06:47.101Z,17.30
2023-05-10T11:09:14.536Z,17.40
2023-05-10T11:11:56.176Z,17.50
2023-05-10T11:14:29.679Z,17.50
2023-05-10T11:16:57.395Z,17.80
2023-05-10T11:19:29.300Z,17.90
2023-05-10T11:22:06.146Z,17.90
2023-05-10T11:24:34.395Z,18.20
2023-05-10T11:27:02.058Z,18.50
2023-05-10T11:29:29.508Z,18.50
2023-05-10T11:31:59.818Z,18.70
2023-05-10T11:34:32.125Z,18.90
2023-05-10T11:36:59.541Z,18.90
2023-05-10T11:39:29.054Z,19.30
2023-05-10T11:41:56.676Z,19.40
2023-05-10T11:46:52.978Z,19.20
2023-05-10T11:49:21.678Z,19.20
2023-05-10T11:51:49.984Z,19.10
2023-05-10T11:56:45.893Z,18.70
2023-05-10T11:59:16.160Z,19.20
2023-05-10T12:01:43.762Z,19.30
2023-05-10T12:04:11.824Z,18.90
2023-05-10T12:06:41.893Z,18.90
2023-05-10T12:09:09.660Z,18.70
2023-05-10T12:11:43.903Z,18.60
2023-05-10T12:14:12.663Z,18.50
2023-05-10T12:16:41.695Z,18.60
2023-05-10T12:19:09.182Z,18.50
2023-05-10T12:21:36.772Z,18.70
2023-05-10T12:24:06.936Z,18.80
2023-05-10T12:26:35.981Z,18.80
2023-05-10T12:29:20.109Z,18.80
2023-05-10T12:31:56.756Z,18.70
2023-05-10T12:34:31.243Z,18.60
2023-05-10T12:36:59.595Z,18.70
2023-05-10T12:39:27.284Z,18.70
2023-05-10T12:41:54.622Z,18.80
2023-05-10T12:44:25.096Z,18.80
2023-05-10T12:46:52.336Z,18.90
2023-05-10T12:49:20.969Z,18.90
2023-05-10T12:51:48.447Z,19.00
2023-05-10T12:54:16.324Z,18.80
2023-05-10T12:56:44.282Z,18.80
2023-05-10T12:59:11.533Z,18.80
2023-05-10T13:01:38.997Z,18.70
2023-05-10T13:04:06.444Z,19.20
2023-05-10T13:06:33.723Z,19.30
2023-05-10T13:09:00.976Z,19.30
2023-05-10T13:11:28.564Z,19.40
2023-05-10T13:13:56.666Z,19.30
2023-05-10T13:18:53.069Z,19.90
2023-05-10T13:21:20.463Z,20.30
2023-05-10T13:23:47.892Z,20.90
2023-05-10T13:26:15.557Z,20.40
2023-05-10T13:28:43.017Z,20.40
2023-05-10T13:31:10.289Z,20.10
2023-05-10T13:33:37.990Z,19.90
2023-05-10T13:36:06.088Z,19.60
2023-05-10T13:38:33.820Z,19.40
2023-05-10T13:41:01.342Z,19.10
2023-05-10T13:43:29.755Z,18.50
2023-05-10T13:45:57.264Z,18.70
2023-05-10T13:48:24.727Z,18.50
2023-05-10T13:50:52.067Z,18.70
2023-05-10T13:53:19.471Z,18.10
2023-05-10T13:55:46.927Z,17.80
2023-05-10T13:58:14.781Z,17.50
2023-05-10T14:00:42.122Z,17.20
2023-05-10T14:03:12.079Z,17.00
2023-05-10T14:05:39.888Z,16.90
2023-05-10T14:08:08.350Z,16.70
2023-05-10T14:10:35.713Z,16.50
2023-05-10T14:13:04.256Z,16.30
2023-05-10T14:15:32.318Z,16.20
2023-05-10T14:17:59.826Z,16.00
2023-05-10T14:20:27.731Z,15.70
2023-05-10T14:22:55.188Z,16.20
2023-05-10T14:25:22.619Z,15.80
2023-05-10T14:27:50.099Z,15.20
2023-05-10T14:30:17.556Z,15.70
2023-05-10T14:32:44.937Z,15.90
2023-05-10T14:35:15.427Z,16.10
2023-05-10T14:37:44.416Z,16.30
2023-05-10T14:40:13.370Z,16.50
2023-05-10T14:42:40.907Z,16.50
2023-05-10T14:45:11.314Z,16.50
2023-05-10T14:47:38.833Z,18.20
2023-05-10T14:50:07.982Z,18.80
2023-05-10T14:52:35.945Z,19.00
2023-05-10T14:55:03.448Z,19.70
2023-05-10T14:57:31.311Z,19.50
2023-05-10T14:59:58.883Z,19.60
2023-05-10T15:02:26.816Z,19.60
2023-05-10T15:04:54.682Z,20.30
2023-05-10T15:07:22.657Z,20.10
2023-05-10T15:09:51.146Z,19.80
2023-05-10T15:12:19.555Z,18.90
2023-05-10T15:17:14.914Z,18.60
2023-05-10T15:19:44.034Z,18.20
2023-05-10T15:22:12.588Z,18.00
2023-05-10T15:24:41.058Z,16.90
2023-05-10T15:27:08.731Z,16.80
2023-05-10T15:29:36.811Z,16.80
2023-05-10T15:32:04.429Z,17.10
2023-05-10T15:37:04.136Z,18.60
2023-05-10T15:39:31.426Z,19.40
2023-05-10T15:41:58.744Z,20.10
2023-05-10T15:44:26.062Z,20.80
2023-05-10T15:46:53.429Z,21.20
2023-05-10T15:51:48.841Z,21.80
2023-05-10T15:54:17.610Z,21.80
2023-05-10T15:56:44.964Z,21.30
2023-05-10T15:59:12.350Z,20.80
2023-05-10T16:01:40.013Z,19.50
2023-05-10T16:04:07.252Z,19.50
2023-05-10T16:06:35.754Z,18.30
2023-05-10T16:09:04.016Z,18.50
2023-05-10T16:11:32.398Z,18.10
2023-05-10T16:14:00.384Z,17.80
2023-05-10T16:16:28.048Z,17.50
2023-05-10T16:18:56.206Z,17.40
2023-05-10T16:21:24.137Z,17.20
2023-05-10T16:23:51.506Z,17.10
2023-05-10T16:26:18.917Z,16.90
2023-05-10T16:28:47.352Z,16.60
2023-05-10T16:31:14.781Z,16.60
2023-05-10T16:33:42.389Z,16.50
2023-05-10T16:36:09.907Z,16.30
2023-05-10T16:38:37.843Z,16.20
2023-05-10T16:41:06.657Z,16.10
2023-05-10T16:43:34.226Z,15.90
2023-05-10T16:46:01.916Z,15.70
2023-05-10T16:48:29.307Z,15.90
2023-05-10T16:50:56.802Z,16.10
2023-05-10T16:53:24.215Z,15.50
2023-05-10T16:55:51.644Z,15.40
2023-05-10T16:58:19.083Z,15.50
2023-05-10T17:00:46.945Z,15.30
2023-05-10T17:03:14.478Z,15.20
2023-05-10T17:05:43.039Z,15.60
2023-05-10T17:08:10.564Z,15.10
2023-05-10T17:10:40.466Z,15.90
2023-05-10T17:13:09.838Z,15.00
2023-05-10T17:15:38.821Z,14.70
2023-05-10T17:18:07.466Z,15.60
2023-05-10T17:20:34.894Z,14.00
2023-05-10T17:23:03.242Z,13.70
2023-05-10T17:25:30.738Z,14.20
2023-05-10T17:27:58.075Z,13.40
2023-05-10T17:30:28.762Z,13.20
2023-05-10T17:32:56.320Z,13.20
2023-05-10T17:35:24.231Z,13.80
2023-05-10T17:37:51.820Z,13.10
2023-05-10T17:40:19.388Z,13.30
2023-05-10T17:42:46.762Z,13.10
2023-05-10T17:45:14.580Z,13.20
2023-05-10T17:47:42.578Z,13.50
2023-05-10T17:50:10.572Z,13.30
2023-05-10T17:52:38.106Z,13.10
2023-05-10T17:55:06.380Z,14.50
2023-05-10T17:57:33.926Z,13.20
2023-05-10T18:00:02.292Z,13.20
2023-05-10T18:02:32.672Z,15.00
2023-05-10T18:05:01.741Z,14.10
2023-05-10T18:07:30.758Z,13.50
2023-05-10T18:09:58.796Z,13.30
2023-05-10T18:12:26.605Z,13.60
2023-05-10T18:14:53.979Z,13.50
2023-05-10T18:17:21.428Z,15.50
2023-05-10T18:19:48.870Z,14.50
2023-05-10T18:22:16.719Z,15.10
2023-05-10T18:24:44.097Z,15.60
2023-05-10T18:27:11.943Z,15.90
2023-05-10T18:29:39.568Z,16.20
2023-05-10T18:34:34.694Z,16.20
2023-05-10T18:39:37.275Z,15.90
2023-05-10T18:42:06.576Z,16.00
2023-05-10T18:44:34.055Z,15.50
2023-05-10T18:47:01.524Z,15.90
2023-05-10T18:49:29.428Z,15.30
2023-05-10T18:51:57.312Z,15.20
2023-05-10T18:54:25.069Z,15.00
2023-05-10T18:56:52.356Z,14.90
2023-05-10T18:59:19.720Z,14.70
2023-05-10T19:01:48.364Z,14.60
2023-05-10T19:04:18.071Z,14.60
2023-05-10T19:06:45.869Z,14.70
2023-05-10T19:09:13.257Z,14.80
2023-05-10T19:11:41.171Z,14.30
2023-05-10T19:14:10.122Z,15.10
2023-05-10T19:16:37.980Z,13.90
2023-05-10T19:19:08.703Z,14.90
2023-05-10T19:21:36.301Z,14.00
2023-05-10T19:24:05.441Z,14.40
2023-05-10T19:26:35.072Z,14.00
2023-05-10T19:29:04.827Z,14.80
2023-05-10T19:31:33.604Z,14.90
2023-05-10T19:34:01.187Z,14.50
2023-05-10T19:36:28.665Z,14.20
2023-05-10T19:38:55.973Z,13.90
2023-05-10T19:41:23.330Z,14.40
2023-05-10T19:43:50.760Z,14.70
2023-05-10T19:46:20.142Z,13.90
2023-05-10T19:48:51.063Z,14.70
2023-05-10T19:51:19.869Z,13.80
2023-05-10T19:53:47.311Z,13.80
2023-05-10T19:56:14.777Z,13.50
2023-05-10T19:58:42.268Z,14.20
2023-05-10T20:01:09.845Z,13.80
2023-05-10T20:03:37.332Z,14.50
2023-05-10T20:06:05.808Z,13.90
2023-05-10T20:08:34.349Z,13.40
2023-05-10T20:11:03.699Z,13.70
2023-05-10T20:13:31.475Z,13.70
2023-05-10T20:15:59.676Z,13.60
2023-05-10T20:18:27.272Z,13.60
2023-05-10T20:20:56.113Z,13.70
2023-05-10T20:23:23.616Z,13.60
2023-05-10T20:25:51.160Z,14.10
2023-05-10T20:28:26.286Z,13.70
2023-05-10T20:30:54.985Z,13.90
2023-05-10T20:33:22.941Z,14.50
2023-05-10T20:35:51.384Z,14.50
2023-05-10T20:38:18.824Z,13.60
2023-05-10T20:40:47.415Z,14.80
2023-05-10T20:43:14.841Z,13.50
2023-05-10T20:45:42.352Z,13.60
2023-05-10T20:48:09.860Z,13.40
2023-05-10T20:50:37.402Z,13.60
2023-05-10T20:53:04.830Z,13.80
2023-05-10T20:55:32.240Z,13.40
2023-05-10T20:57:59.651Z,13.40
2023-05-10T21:00:27.049Z,13.40
2023-05-10T21:02:54.620Z,13.40
2023-05-10T21:05:23.722Z,13.60
2023-05-10T21:07:54.105Z,13.30
2023-05-10T21:10:22.071Z,14.90
2023-05-10T21:12:50.508Z,13.40
2023-05-10T21:15:18.159Z,13.30
2023-05-10T21:17:45.822Z,15.10
2023-05-10T21:20:13.636Z,13.40
2023-05-10T21:22:41.008Z,13.30
2023-05-10T21:25:08.754Z,13.50
2023-05-10T21:27:36.148Z,13.50
2023-05-10T21:30:03.768Z,13.30
2023-05-10T21:32:31.955Z,13.30
2023-05-10T21:34:59.400Z,13.60
2023-05-10T21:37:26.825Z,13.40
2023-05-10T21:39:54.228Z,13.20
2023-05-10T21:42:22.628Z,13.20
2023-05-10T21:44:50.091Z,13.10
2023-05-10T21:47:17.403Z,13.30
2023-05-10T21:49:44.995Z,13.10
2023-05-10T21:52:12.467Z,14.40
2023-05-10T21:54:40.108Z,13.20
2023-05-10T21:57:07.706Z,13.10
2023-05-10T21:59:35.140Z,12.80
2023-05-10T22:02:02.636Z,13.90
2023-05-10T22:04:30.982Z,12.70
2023-05-10T22:06:58.441Z,12.70
2023-05-10T22:09:26.016Z,12.70
2023-05-10T22:11:53.252Z,12.60
2023-05-10T22:14:21.713Z,14.70
2023-05-10T22:16:49.141Z,12.60
2023-05-10T22:19:16.404Z,13.00
2023-05-10T22:21:44.616Z,12.50
2023-05-10T22:24:12.064Z,12.70
2023-05-10T22:26:39.781Z,12.40
2023-05-10T22:29:07.196Z,12.30
2023-05-10T22:31:34.732Z,12.20
2023-05-10T22:34:02.467Z,12.50
2023-05-10T22:36:31.598Z,12.40
2023-05-10T22:38:58.951Z,12.50
2023-05-10T22:41:26.443Z,12.40
2023-05-10T22:43:53.853Z,12.30
2023-05-10T22:46:21.352Z,13.50
2023-05-10T22:48:48.785Z,12.10
2023-05-10T22:51:16.165Z,12.20
2023-05-10T22:53:43.579Z,12.50
2023-05-10T22:56:11.012Z,12.80
2023-05-10T22:58:39.400Z,12.10
2023-05-10T23:01:07.166Z,12.50
2023-05-10T23:03:34.560Z,12.20
2023-05-10T23:06:02.619Z,11.80
2023-05-10T23:08:29.991Z,11.80
2023-05-10T23:10:57.354Z,11.70
2023-05-10T23:13:24.856Z,13.50
2023-05-10T23:15:52.364Z,11.90
2023-05-10T23:18:19.706Z,13.50
2023-05-10T23:20:47.334Z,11.60
2023-05-10T23:23:14.762Z,13.30
2023-05-10T23:25:42.382Z,11.70
2023-05-10T23:28:09.812Z,11.40
2023-05-10T23:30:37.086Z,11.50
2023-05-10T23:33:04.834Z,11.30
2023-05-10T23:38:01.118Z,11.30
2023-05-10T23:40:28.647Z,11.40
2023-05-10T23:42:55.878Z,11.40
2023-05-10T23:45:23.256Z,12.80
2023-05-10T23:47:50.664Z,11.40
2023-05-10T23:50:18.652Z,11.20
2023-05-10T23:52:46.968Z,11.10
2023-05-10T23:55:14.511Z,11.20
2023-05-10T23:57:41.823Z,11.10
